createdAt,value
2019-01-11T00:02:53.892Z,56.70
2019-01-11T00:06:59.243Z,56.30
2019-01-11T00:11:04.261Z,56.60
2019-01-11T00:15:10.285Z,56.10
2019-01-11T00:19:15.245Z,57.70
2019-01-11T00:23:20.278Z,56.80
2019-01-11T00:27:25.909Z,57.30
2019-01-11T00:31:31.108Z,57.80
2019-01-11T00:35:36.004Z,59.30
2019-01-11T00:39:41.181Z,59.40
2019-01-11T00:43:46.139Z,57.50
2019-01-11T00:47:51.157Z,57.20
2019-01-11T00:51:56.240Z,56.70
2019-01-11T00:56:01.202Z,55.60
2019-01-11T01:00:09.673Z,56.30
2019-01-11T01:04:14.620Z,56.00
2019-01-11T01:08:19.769Z,56.20
2019-01-11T01:12:24.672Z,56.00
2019-01-11T01:16:29.901Z,56.00
2019-01-11T01:20:35.077Z,55.00
2019-01-11T01:24:40.163Z,55.20
2019-01-11T01:28:45.189Z,56.80
2019-01-11T01:32:50.289Z,59.80
2019-01-11T01:36:55.224Z,60.80
2019-01-11T01:41:00.469Z,55.90
2019-01-11T01:45:07.547Z,58.10
2019-01-11T01:49:13.762Z,56.30
2019-01-11T01:53:19.860Z,57.70
2019-01-11T01:57:24.852Z,60.60
2019-01-11T02:01:30.080Z,60.50
2019-01-11T02:05:35.082Z,63.10
2019-01-11T02:09:40.199Z,63.40
2019-01-11T02:13:45.191Z,63.30
2019-01-11T02:17:50.358Z,63.10
2019-01-11T02:21:55.351Z,62.60
2019-01-11T02:26:00.704Z,63.30
2019-01-11T02:30:07.399Z,63.10
2019-01-11T02:34:12.712Z,59.20
2019-01-11T02:38:17.760Z,57.90
2019-01-11T02:42:22.775Z,58.50
2019-01-11T02:46:27.834Z,57.80
2019-01-11T02:50:32.887Z,60.20
2019-01-11T02:54:38.024Z,62.00
2019-01-11T02:58:42.996Z,62.10
2019-01-11T03:02:48.186Z,62.70
2019-01-11T03:06:53.086Z,64.00
2019-01-11T03:10:58.137Z,63.60
2019-01-11T03:15:03.104Z,65.70
2019-01-11T03:19:08.430Z,65.80
2019-01-11T03:23:13.583Z,66.70
2019-01-11T03:27:18.794Z,67.00
2019-01-11T03:31:35.718Z,68.90
2019-01-11T03:35:40.698Z,68.20
2019-01-11T03:39:45.944Z,67.60
2019-01-11T03:43:50.991Z,67.90
2019-01-11T03:47:56.255Z,68.80
2019-01-11T03:52:01.145Z,68.20
2019-01-11T03:56:06.441Z,67.10
2019-01-11T04:00:17.333Z,67.30
2019-01-11T04:04:22.243Z,66.00
2019-01-11T04:08:27.392Z,67.80
2019-01-11T04:12:32.493Z,62.20
2019-01-11T04:16:37.504Z,62.80
2019-01-11T04:20:42.697Z,63.90
2019-01-11T04:25:07.618Z,65.40
2019-01-11T04:29:12.946Z,65.60
2019-01-11T04:33:17.869Z,65.30
2019-01-11T04:37:23.019Z,67.30
2019-01-11T04:41:27.943Z,67.40
2019-01-11T04:45:33.021Z,67.70
2019-01-11T04:49:38.340Z,66.80
2019-01-11T04:53:43.325Z,66.80
2019-01-11T04:57:48.374Z,68.00
2019-01-11T05:01:53.487Z,67.50
2019-01-11T05:05:58.437Z,66.20
2019-01-11T05:10:03.446Z,67.20
2019-01-11T05:14:08.426Z,64.50
2019-01-11T05:18:13.412Z,65.80
2019-01-11T05:22:18.325Z,66.90
2019-01-11T05:26:23.394Z,68.00
2019-01-11T05:30:28.347Z,66.00
2019-01-11T05:34:33.357Z,67.60
2019-01-11T05:38:38.377Z,66.80
2019-01-11T05:42:43.585Z,67.90
2019-01-11T05:46:48.624Z,67.80
2019-01-11T05:50:53.557Z,67.40
2019-01-11T05:54:58.975Z,67.80
2019-01-11T05:59:08.147Z,69.00
2019-01-11T06:03:13.107Z,69.50
2019-01-11T06:07:40.329Z,67.90
2019-01-11T06:11:45.507Z,68.70
2019-01-11T06:15:50.626Z,70.10
2019-01-11T06:19:55.861Z,69.50
2019-01-11T06:24:00.999Z,69.80
2019-01-11T06:28:06.161Z,71.10
2019-01-11T06:32:11.194Z,69.90
2019-01-11T06:36:16.210Z,70.90
2019-01-11T06:40:21.119Z,70.90
2019-01-11T06:44:26.300Z,70.70
2019-01-11T06:48:42.250Z,70.70
2019-01-11T06:52:47.275Z,71.00
2019-01-11T06:56:53.335Z,71.70
2019-01-11T07:00:59.076Z,71.80
2019-01-11T07:05:04.612Z,71.50
2019-01-11T07:09:10.418Z,71.10
2019-01-11T07:13:15.403Z,72.90
2019-01-11T07:17:20.361Z,72.80
2019-01-11T07:21:25.425Z,72.60
2019-01-11T07:25:30.439Z,73.90
2019-01-11T07:29:35.570Z,73.50
2019-01-11T07:33:40.604Z,73.80
2019-01-11T07:37:45.592Z,74.50
2019-01-11T07:41:50.536Z,73.70
2019-01-11T07:45:55.623Z,74.70
2019-01-11T07:50:00.649Z,74.90
2019-01-11T07:54:05.995Z,75.60
2019-01-11T08:02:29.376Z,74.20
2019-01-11T08:06:34.451Z,74.60
2019-01-11T08:10:39.366Z,73.80
2019-01-11T08:14:45.400Z,73.30
2019-01-11T08:18:50.311Z,71.70
2019-01-11T08:22:55.243Z,72.20
2019-01-11T08:27:00.171Z,71.00
2019-01-11T08:31:05.269Z,71.20
2019-01-11T08:35:10.706Z,71.50
2019-01-11T08:39:15.640Z,68.90
2019-01-11T08:43:20.833Z,66.50
2019-01-11T08:47:26.335Z,63.90
2019-01-11T08:51:31.251Z,62.00
2019-01-11T08:55:36.224Z,64.10
2019-01-11T08:59:41.553Z,61.10
2019-01-11T09:03:46.452Z,60.60
2019-01-11T09:07:51.529Z,58.00
2019-01-11T09:11:56.467Z,60.00
2019-01-11T09:16:01.382Z,62.00
2019-01-11T09:20:07.327Z,62.00
2019-01-11T09:24:12.261Z,61.90
2019-01-11T09:28:17.365Z,63.30
2019-01-11T09:32:22.299Z,62.30
2019-01-11T09:36:27.368Z,63.10
2019-01-11T09:40:32.279Z,63.80
2019-01-11T09:44:37.226Z,62.20
2019-01-11T09:48:42.332Z,61.60
2019-01-11T09:52:47.246Z,61.70
2019-01-11T09:56:52.191Z,61.00
2019-01-11T10:00:59.295Z,60.40
2019-01-11T10:05:04.220Z,59.20
2019-01-11T10:09:09.231Z,59.80
2019-01-11T10:13:14.163Z,59.20
2019-01-11T10:17:19.158Z,56.50
2019-01-11T10:21:24.126Z,55.10
2019-01-11T10:25:29.012Z,54.00
2019-01-11T10:29:34.068Z,52.10
2019-01-11T10:33:38.981Z,50.80
2019-01-11T10:37:43.914Z,49.10
2019-01-11T10:41:49.224Z,47.60
2019-01-11T10:45:54.171Z,44.50
2019-01-11T10:49:59.080Z,43.50
2019-01-11T10:54:04.112Z,42.30
2019-01-11T10:58:09.175Z,41.70
2019-01-11T11:02:14.344Z,40.20
2019-01-11T11:06:19.256Z,42.10
2019-01-11T11:10:24.291Z,40.30
2019-01-11T11:14:29.323Z,38.90
2019-01-11T11:18:34.253Z,38.20
2019-01-11T11:22:39.301Z,36.50
2019-01-11T11:26:44.208Z,36.10
2019-01-11T11:30:51.013Z,31.30
2019-01-11T11:34:55.724Z,29.40
2019-01-11T11:39:00.753Z,27.30
2019-01-11T11:43:05.680Z,28.00
2019-01-11T11:47:10.719Z,29.30
2019-01-11T11:51:15.653Z,31.10
2019-01-11T11:55:20.562Z,34.30
2019-01-11T11:59:25.587Z,35.20
2019-01-11T12:03:30.509Z,35.90
2019-01-11T12:07:35.539Z,37.70
2019-01-11T12:11:40.473Z,39.60
2019-01-11T12:15:45.547Z,39.50
2019-01-11T12:19:50.504Z,39.90
2019-01-11T12:23:55.427Z,39.60
2019-01-11T12:28:00.390Z,39.70
2019-01-11T12:32:05.432Z,38.20
2019-01-11T12:36:10.484Z,38.30
2019-01-11T12:40:16.804Z,37.60
2019-01-11T12:44:23.349Z,34.20
2019-01-11T12:48:33.128Z,29.50
2019-01-11T12:52:41.023Z,27.80
2019-01-11T12:56:47.786Z,31.40
2019-01-11T13:01:06.504Z,33.10
2019-01-11T13:05:15.544Z,35.00
2019-01-11T13:09:22.782Z,34.60
2019-01-11T13:13:33.657Z,33.50
2019-01-11T13:17:40.065Z,32.40
2019-01-11T13:21:45.263Z,32.10
2019-01-11T13:25:51.356Z,29.10
2019-01-11T13:29:56.489Z,28.60
2019-01-11T13:34:01.392Z,28.80
2019-01-11T13:38:06.615Z,29.90
2019-01-11T13:42:12.129Z,31.30
2019-01-11T13:46:17.592Z,31.80
2019-01-11T13:50:35.667Z,34.50
2019-01-11T13:54:40.583Z,34.20
2019-01-11T13:58:45.627Z,36.20
2019-01-11T14:02:51.756Z,37.30
2019-01-11T14:06:56.763Z,38.60
2019-01-11T14:11:01.773Z,39.60
2019-01-11T14:15:07.548Z,39.90
2019-01-11T14:19:12.467Z,38.90
2019-01-11T14:23:17.555Z,40.10
2019-01-11T14:27:22.566Z,41.10
2019-01-11T14:31:27.682Z,38.90
2019-01-11T14:35:32.816Z,40.10
2019-01-11T14:39:37.773Z,39.40
2019-01-11T14:43:42.803Z,41.30
2019-01-11T14:47:47.832Z,41.50
2019-01-11T14:51:52.743Z,42.00
2019-01-11T14:55:57.979Z,42.00
2019-01-11T15:00:03.302Z,41.60
2019-01-11T15:04:08.319Z,42.40
2019-01-11T15:08:13.658Z,43.40
2019-01-11T15:12:18.825Z,43.30
2019-01-11T15:16:24.160Z,43.40
2019-01-11T15:20:29.573Z,43.00
2019-01-11T15:24:34.947Z,43.70
2019-01-11T15:28:40.050Z,45.70
2019-01-11T15:32:45.144Z,50.70
2019-01-11T15:36:50.239Z,52.00
2019-01-11T15:40:55.397Z,53.30
2019-01-11T15:45:00.489Z,52.40
2019-01-11T15:49:05.687Z,53.80
2019-01-11T15:53:10.754Z,52.50
2019-01-11T15:57:15.840Z,55.00
2019-01-11T16:01:20.831Z,53.80
2019-01-11T16:05:25.845Z,54.60
2019-01-11T16:09:59.755Z,55.60
2019-01-11T16:14:41.202Z,55.70
2019-01-11T16:18:46.316Z,57.10
2019-01-11T16:22:51.298Z,57.40
2019-01-11T16:26:56.583Z,58.10
2019-01-11T16:31:01.633Z,59.60
2019-01-11T16:35:07.455Z,60.20
2019-01-11T16:39:12.488Z,59.60
2019-01-11T16:43:18.051Z,61.60
2019-01-11T16:47:23.047Z,61.50
2019-01-11T16:51:28.137Z,61.30
2019-01-11T16:55:33.272Z,61.40
2019-01-11T16:59:38.297Z,60.00
2019-01-11T17:03:43.306Z,59.60
2019-01-11T17:07:48.325Z,60.60
2019-01-11T17:11:53.509Z,61.10
2019-01-11T17:15:58.587Z,61.90
2019-01-11T17:20:03.703Z,61.30
2019-01-11T17:24:08.643Z,61.30
2019-01-11T17:28:13.832Z,61.30
2019-01-11T17:32:18.778Z,63.40
2019-01-11T17:36:24.224Z,62.00
2019-01-11T17:40:29.251Z,62.90
2019-01-11T17:44:34.449Z,62.20
2019-01-11T17:48:39.397Z,63.20
2019-01-11T17:52:44.600Z,62.90
2019-01-11T17:56:49.876Z,64.30
2019-01-11T18:00:54.871Z,65.50
2019-01-11T18:05:00.093Z,64.50
2019-01-11T18:09:08.243Z,64.60
2019-01-11T18:13:13.111Z,65.00
2019-01-11T18:17:18.250Z,66.40
2019-01-11T18:21:23.121Z,64.50
2019-01-11T18:25:28.210Z,65.80
2019-01-11T18:29:33.224Z,66.30
2019-01-11T18:33:38.433Z,66.80
2019-01-11T18:37:43.750Z,68.00
2019-01-11T18:41:48.901Z,66.60
2019-01-11T18:45:54.056Z,66.30
2019-01-11T18:49:59.076Z,68.00
2019-01-11T18:54:04.284Z,68.00
2019-01-11T18:58:09.600Z,67.40
2019-01-11T19:02:15.185Z,67.90
2019-01-11T19:06:20.357Z,67.50
2019-01-11T19:10:25.445Z,67.70
2019-01-11T19:14:31.510Z,67.80
2019-01-11T19:18:36.632Z,68.50
2019-01-11T19:22:41.971Z,68.80
2019-01-11T19:26:46.919Z,67.30
2019-01-11T19:30:52.095Z,68.00
2019-01-11T19:34:57.084Z,68.40
2019-01-11T19:39:02.320Z,69.40
2019-01-11T19:43:07.644Z,69.10
2019-01-11T19:47:12.910Z,69.20
2019-01-11T19:51:18.008Z,68.60
2019-01-11T19:55:23.684Z,68.00
2019-01-11T19:59:28.732Z,68.70
2019-01-11T20:03:34.059Z,70.30
2019-01-11T20:07:39.723Z,71.30
2019-01-11T20:11:44.721Z,71.50
2019-01-11T20:15:49.810Z,71.40
2019-01-11T20:19:54.769Z,69.80
2019-01-11T20:23:59.934Z,70.20
2019-01-11T20:28:04.955Z,70.90
2019-01-11T20:32:10.131Z,70.20
2019-01-11T20:36:15.517Z,70.60
2019-01-11T20:40:20.887Z,71.00
2019-01-11T20:44:26.995Z,70.20
2019-01-11T20:48:32.447Z,70.70
2019-01-11T20:52:37.460Z,70.70
2019-01-11T20:56:42.871Z,69.60
2019-01-11T21:00:48.307Z,68.50
2019-01-11T21:04:54.268Z,67.30
2019-01-11T21:08:59.446Z,67.80
2019-01-11T21:13:06.674Z,68.00
2019-01-11T21:17:11.642Z,68.50
2019-01-11T21:21:16.897Z,67.90
2019-01-11T21:25:21.997Z,68.70
2019-01-11T21:29:27.145Z,68.40
2019-01-11T21:33:32.232Z,69.20
2019-01-11T21:37:37.364Z,68.30
2019-01-11T21:41:42.264Z,68.20
2019-01-11T21:45:47.551Z,68.10
2019-01-11T21:49:53.106Z,69.00
2019-01-11T21:53:58.725Z,71.40
2019-01-11T21:58:03.807Z,69.90
2019-01-11T22:02:09.008Z,68.70
2019-01-11T22:06:14.365Z,69.20
2019-01-11T22:10:19.370Z,67.20
2019-01-11T22:14:24.708Z,65.60
2019-01-11T22:18:29.791Z,66.50
2019-01-11T22:22:34.873Z,67.20
2019-01-11T22:26:40.355Z,65.40
2019-01-11T22:30:45.467Z,66.40
2019-01-11T22:34:50.380Z,67.20
2019-01-11T22:38:56.116Z,68.50
2019-01-11T22:43:01.533Z,67.70
2019-01-11T22:47:06.823Z,67.70
2019-01-11T22:51:12.073Z,68.30
2019-01-11T22:55:17.663Z,67.20
2019-01-11T22:59:23.004Z,67.50
2019-01-11T23:03:34.741Z,67.30
2019-01-11T23:07:51.724Z,67.00
2019-01-11T23:12:25.074Z,66.90
2019-01-11T23:17:14.299Z,67.80
2019-01-11T23:21:19.523Z,68.10
2019-01-11T23:25:25.075Z,66.80
2019-01-11T23:29:30.480Z,68.00
2019-01-11T23:33:35.743Z,67.20
2019-01-11T23:37:41.308Z,65.30
2019-01-11T23:41:46.310Z,64.60
2019-01-11T23:45:52.259Z,62.70
2019-01-11T23:49:57.253Z,62.90
2019-01-11T23:54:02.660Z,64.50
2019-01-11T23:58:07.834Z,63.30
